Platzwetter Flugplatz Wels

Flugwetter Linz LOWL

[Quelle: ADDS]
METAR
LOWL 082150Z AUTO 23003KT 9000 NSC M01/M02 Q1001 TEMPO BKN009 =
LOWL 081715Z 0818/0918 09005KT 9000 SCT012 BKN020 TX00/0918Z TNM02/0822Z TEMPO 0818/0918 SCT009 BKN011 BECMG 0818/0819 27004KT BECMG 0901/0903 4000 -SN TEMPO 0901/0912 2000 SN BKN007 TEMPO 0915/0918 6000 -RASN
TAF
LOWL 081715Z 0818/0918 09005KT 9000 SCT012 BKN020 TX00/0918Z TNM02/0822Z TEMPO 0818/0918 SCT009 BKN011 BECMG 0818/0819 27004KT BECMG 0901/0903 4000 -SN TEMPO 0901/0912 2000 SN BKN007 TEMPO 0915/0918 6000 -RASN =

Flugwetter Salzburg LOWS

[Quelle: ADDS]
METAR
LOWS 082150Z VRB01KT 8000 FEW005 BKN008 M02/M02 Q1001 NOSIG =
AMD LOWS 082020Z 0820/0918 33005KT 9999 FEW007 BKN012 TX01/0918Z TNM02/0821Z TEMPO 0820/0823 FEW005 BKN007 FM082300 25004KT 7000 -SN SCT007 BKN014 PROB40 TEMPO 0902/0907 1000 SN TEMPO 0907/0913 0700 SN FEW004 BKN009 PROB30 TEMPO 0911/0913 4000 SNRA BECMG 0913/0916 31007KT NSW SCT020 BKN030 TEMPO 0913/0918 4000 -SN BKN014
TAF
AMD LOWS 082020Z 0820/0918 33005KT 9999 FEW007 BKN012 TX01/0918Z TNM02/0821Z TEMPO 0820/0823 FEW005 BKN007 FM082300 25004KT 7000 -SN SCT007 BKN014 PROB40 TEMPO 0902/0907 1000 SN TEMPO 0907/0913 0700 SN FEW004 BKN009 PROB30 TEMPO 0911/0913 4000 SNRA BECMG 0913/0916 31007KT NSW SCT020 BKN030 TEMPO 0913/0918 4000 -SN BKN014 =

Wind - Verlauf

Windrichtung - Verlauf

Temperatur - Verlauf

Relative Luftfeuchtigkeit - Verlauf

Luftdruck - Verlauf

Wir benutzen Cookies

Wir nutzen Cookies auf unserer Website. Einige von ihnen sind essenziell für den Betrieb der Seite, während andere uns helfen, diese Website und die Nutzererfahrung zu verbessern (Tracking Cookies). Sie können selbst entscheiden, ob Sie die Cookies zulassen möchten. Bitte beachten Sie, dass bei einer Ablehnung womöglich nicht mehr alle Funktionalitäten der Seite zur Verfügung stehen.